createdAt,value
2023-05-22T00:01:42.763Z,14.81
2023-05-22T00:04:10.588Z,14.81
2023-05-22T00:06:37.969Z,14.75
2023-05-22T00:09:04.732Z,14.75
2023-05-22T00:11:31.467Z,14.75
2023-05-22T00:13:58.059Z,14.69
2023-05-22T00:16:24.723Z,14.75
2023-05-22T00:18:51.428Z,14.69
2023-05-22T00:21:18.552Z,14.69
2023-05-22T00:23:45.765Z,14.69
2023-05-22T00:26:16.490Z,14.63
2023-05-22T00:28:43.299Z,14.63
2023-05-22T00:31:10.042Z,14.56
2023-05-22T00:33:36.903Z,14.63
2023-05-22T00:36:03.828Z,14.56
2023-05-22T00:38:35.206Z,14.56
2023-05-22T00:41:03.763Z,14.56
2023-05-22T00:43:30.918Z,14.63
2023-05-22T00:45:57.711Z,14.56
2023-05-22T00:48:25.039Z,14.56
2023-05-22T00:50:54.717Z,14.56
2023-05-22T00:53:24.147Z,14.56
2023-05-22T00:55:51.741Z,14.63
2023-05-22T00:58:18.667Z,14.63
2023-05-22T01:00:46.758Z,14.69
2023-05-22T01:03:15.655Z,14.69
2023-05-22T01:05:43.856Z,14.69
2023-05-22T01:08:11.249Z,14.69
2023-05-22T01:10:40.306Z,14.69
2023-05-22T01:13:14.421Z,14.69
2023-05-22T01:15:51.338Z,14.75
2023-05-22T01:18:48.195Z,14.75
2023-05-22T01:22:05.509Z,14.75
2023-05-22T01:25:14.129Z,14.81
2023-05-22T01:27:55.940Z,14.81
2023-05-22T01:30:37.990Z,14.81
2023-05-22T01:33:08.557Z,14.81
2023-05-22T01:35:39.598Z,14.81
2023-05-22T01:38:07.724Z,14.81
2023-05-22T01:40:34.728Z,14.81
2023-05-22T01:43:01.575Z,14.75
2023-05-22T01:45:28.404Z,14.75
2023-05-22T01:47:55.427Z,14.69
2023-05-22T01:50:22.564Z,14.75
2023-05-22T01:53:15.267Z,14.56
2023-05-22T01:56:01.354Z,14.69
2023-05-22T01:58:42.967Z,14.50
2023-05-22T02:01:12.033Z,14.44
2023-05-22T02:03:40.987Z,14.44
2023-05-22T02:06:10.644Z,14.44
2023-05-22T02:08:41.171Z,14.38
2023-05-22T02:11:10.899Z,14.44
2023-05-22T02:13:38.361Z,14.31
2023-05-22T02:16:06.315Z,14.25
2023-05-22T02:18:33.063Z,14.25
2023-05-22T02:21:00.381Z,14.25
2023-05-22T02:23:29.696Z,14.19
2023-05-22T02:25:56.761Z,14.13
2023-05-22T02:28:24.475Z,14.19
2023-05-22T02:30:51.265Z,14.13
2023-05-22T02:33:18.577Z,14.13
2023-05-22T02:35:45.921Z,14.06
2023-05-22T02:38:12.998Z,14.00
2023-05-22T02:40:40.502Z,13.94
2023-05-22T02:43:07.345Z,14.00
2023-05-22T02:45:34.048Z,14.00
2023-05-22T02:48:03.499Z,14.00
2023-05-22T02:50:30.414Z,13.94
2023-05-22T02:52:57.093Z,13.94
2023-05-22T02:55:23.749Z,13.69
2023-05-22T02:57:50.505Z,13.69
2023-05-22T03:00:17.737Z,13.69
2023-05-22T03:02:44.473Z,13.81
2023-05-22T03:05:11.285Z,13.75
2023-05-22T03:07:37.967Z,13.75
2023-05-22T03:10:04.945Z,13.81
2023-05-22T03:12:31.725Z,13.88
2023-05-22T03:14:58.350Z,13.94
2023-05-22T03:17:25.048Z,14.00
2023-05-22T03:19:52.315Z,13.94
2023-05-22T03:22:19.119Z,13.94
2023-05-22T03:24:45.844Z,13.88
2023-05-22T03:27:17.261Z,13.75
2023-05-22T03:29:43.934Z,13.75
2023-05-22T03:32:10.698Z,13.81
2023-05-22T03:34:37.370Z,13.81
2023-05-22T03:37:04.225Z,13.69
2023-05-22T03:39:30.901Z,13.69
2023-05-22T03:41:57.679Z,13.75
2023-05-22T03:44:24.670Z,13.69
2023-05-22T03:46:51.330Z,13.75
2023-05-22T03:49:18.020Z,13.75
2023-05-22T03:51:44.712Z,13.75
2023-05-22T03:54:11.415Z,13.69
2023-05-22T03:56:38.090Z,13.81
2023-05-22T03:59:04.766Z,13.75
2023-05-22T04:01:31.469Z,13.81
2023-05-22T04:03:58.141Z,13.81
2023-05-22T04:06:25.636Z,13.81
2023-05-22T04:08:52.510Z,13.75
2023-05-22T04:11:19.760Z,13.75
2023-05-22T04:13:50.931Z,13.81
2023-05-22T04:16:18.249Z,13.81
2023-05-22T04:18:45.015Z,13.75
2023-05-22T04:21:12.782Z,13.81
2023-05-22T04:23:39.506Z,13.81
2023-05-22T04:26:08.783Z,13.81
2023-05-22T04:28:35.591Z,13.81
2023-05-22T04:31:02.457Z,13.81
2023-05-22T04:33:30.261Z,13.81
2023-05-22T04:35:57.547Z,13.81
2023-05-22T04:38:26.418Z,13.81
2023-05-22T04:40:53.095Z,13.88
2023-05-22T04:43:19.764Z,13.88
2023-05-22T04:45:46.403Z,13.88
2023-05-22T04:48:13.683Z,13.88
2023-05-22T04:50:40.744Z,13.94
2023-05-22T04:53:07.535Z,14.00
2023-05-22T04:55:34.267Z,14.06
2023-05-22T04:58:00.999Z,14.06
2023-05-22T05:00:28.848Z,14.06
2023-05-22T05:02:57.331Z,14.06
2023-05-22T05:05:24.304Z,14.06
2023-05-22T05:07:51.736Z,14.13
2023-05-22T05:10:18.523Z,14.06
2023-05-22T05:12:45.184Z,14.13
2023-05-22T05:15:11.853Z,14.19
2023-05-22T05:17:38.561Z,14.19
2023-05-22T05:20:07.344Z,14.19
2023-05-22T05:22:34.683Z,14.25
2023-05-22T05:25:01.748Z,14.31
2023-05-22T05:27:28.482Z,14.38
2023-05-22T05:29:55.118Z,14.50
2023-05-22T05:32:21.951Z,14.50
2023-05-22T05:34:48.650Z,14.63
2023-05-22T05:37:15.355Z,14.69
2023-05-22T05:39:42.217Z,14.69
2023-05-22T05:42:08.905Z,14.75
2023-05-22T05:44:35.682Z,14.88
2023-05-22T05:47:02.305Z,14.94
2023-05-22T05:49:28.939Z,15.00
2023-05-22T05:51:55.576Z,15.06
2023-05-22T05:54:22.352Z,15.06
2023-05-22T05:56:49.032Z,15.19
2023-05-22T05:59:16.113Z,15.31
2023-05-22T06:01:44.619Z,15.38
2023-05-22T06:04:12.068Z,15.50
2023-05-22T06:06:39.436Z,15.56
2023-05-22T06:09:06.754Z,15.63
2023-05-22T06:11:34.225Z,15.75
2023-05-22T06:14:03.050Z,15.75
2023-05-22T06:16:30.096Z,15.88
2023-05-22T06:18:59.930Z,15.94
2023-05-22T06:21:27.035Z,16.00
2023-05-22T06:23:53.729Z,16.06
2023-05-22T06:26:20.451Z,16.19
2023-05-22T06:28:47.168Z,16.25
2023-05-22T06:31:14.351Z,16.38
2023-05-22T06:33:43.189Z,16.50
2023-05-22T06:36:11.487Z,16.50
2023-05-22T06:38:39.182Z,16.69
2023-05-22T06:41:06.437Z,16.75
2023-05-22T06:43:33.255Z,16.75
2023-05-22T06:46:00.067Z,16.81
2023-05-22T06:48:26.821Z,16.88
2023-05-22T06:50:53.462Z,16.94
2023-05-22T06:53:20.190Z,16.94
2023-05-22T06:55:46.901Z,17.00
2023-05-22T06:58:13.551Z,17.06
2023-05-22T07:00:40.293Z,17.13
2023-05-22T07:03:07.603Z,17.25
2023-05-22T07:05:34.362Z,17.38
2023-05-22T07:08:01.581Z,17.44
2023-05-22T07:10:28.380Z,17.63
2023-05-22T07:12:55.127Z,17.81
2023-05-22T07:15:22.052Z,17.75
2023-05-22T07:17:49.446Z,17.88
2023-05-22T07:20:17.652Z,17.88
2023-05-22T07:22:44.366Z,17.94
2023-05-22T07:25:11.191Z,18.06
2023-05-22T07:27:37.836Z,18.13
2023-05-22T07:30:04.953Z,18.19
2023-05-22T07:32:31.656Z,18.25
2023-05-22T07:34:58.347Z,18.38
2023-05-22T07:37:25.025Z,18.38
2023-05-22T07:39:51.658Z,18.44
2023-05-22T07:42:18.786Z,18.56
2023-05-22T07:44:45.482Z,18.81
2023-05-22T07:47:12.098Z,18.81
2023-05-22T07:49:38.738Z,18.81
2023-05-22T07:52:05.882Z,18.81
2023-05-22T07:54:32.510Z,18.81
2023-05-22T07:57:03.238Z,18.88
2023-05-22T07:59:29.891Z,19.13
2023-05-22T08:01:58.292Z,19.25
2023-05-22T08:04:26.137Z,19.31
2023-05-22T08:06:53.059Z,19.25
2023-05-22T08:09:21.243Z,19.19
2023-05-22T08:11:48.077Z,19.25
2023-05-22T08:14:14.905Z,19.50
2023-05-22T08:16:41.600Z,19.44
2023-05-22T08:19:08.991Z,19.50
2023-05-22T08:21:35.821Z,19.56
2023-05-22T08:24:02.568Z,19.56
2023-05-22T08:26:30.150Z,19.69
2023-05-22T08:28:58.685Z,19.81
2023-05-22T08:31:26.096Z,19.81
2023-05-22T08:33:52.712Z,19.88
2023-05-22T08:36:19.375Z,20.13
2023-05-22T08:38:46.021Z,20.13
2023-05-22T08:41:13.616Z,20.06
2023-05-22T08:43:41.738Z,20.25
2023-05-22T08:46:09.920Z,20.19
2023-05-22T08:48:37.935Z,20.19
2023-05-22T08:51:06.188Z,20.25
2023-05-22T08:53:37.578Z,20.31
2023-05-22T08:56:08.689Z,20.31
2023-05-22T08:58:37.666Z,20.31
2023-05-22T09:01:07.277Z,20.63
2023-05-22T09:03:36.744Z,20.50
2023-05-22T09:06:03.749Z,20.50
2023-05-22T09:08:30.757Z,20.44
2023-05-22T09:10:57.604Z,20.50
2023-05-22T09:13:29.104Z,20.88
2023-05-22T09:16:10.328Z,20.75
2023-05-22T09:18:40.666Z,20.50
2023-05-22T09:21:21.681Z,21.00
2023-05-22T09:23:59.890Z,21.00
2023-05-22T09:26:29.709Z,21.13
2023-05-22T09:28:58.890Z,21.06
2023-05-22T09:31:25.583Z,21.00
2023-05-22T09:33:53.915Z,21.06
2023-05-22T09:36:20.933Z,21.00
2023-05-22T09:38:47.886Z,21.56
2023-05-22T09:41:22.241Z,21.56
2023-05-22T09:43:52.004Z,21.50
2023-05-22T09:46:18.759Z,21.00
2023-05-22T09:48:51.538Z,21.19
2023-05-22T09:51:26.426Z,21.63
2023-05-22T09:54:03.963Z,21.63
2023-05-22T09:56:39.352Z,21.25
2023-05-22T09:59:09.525Z,21.19
2023-05-22T10:01:39.116Z,21.44
2023-05-22T10:04:09.428Z,21.81
2023-05-22T10:06:37.088Z,21.44
2023-05-22T10:09:07.131Z,21.13
2023-05-22T10:11:35.582Z,21.25
2023-05-22T10:14:05.078Z,21.38
2023-05-22T10:16:38.160Z,21.63
2023-05-22T10:19:06.807Z,21.81
2023-05-22T10:21:36.833Z,21.81
2023-05-22T10:24:05.856Z,21.88
2023-05-22T10:26:33.328Z,21.88
2023-05-22T10:29:07.514Z,22.19
2023-05-22T10:31:50.277Z,22.50
2023-05-22T10:34:32.196Z,22.50
2023-05-22T10:37:19.490Z,22.94
2023-05-22T10:40:07.551Z,22.69
2023-05-22T10:42:34.609Z,22.50
2023-05-22T10:45:01.634Z,22.88
2023-05-22T10:47:28.398Z,22.88
2023-05-22T10:50:09.956Z,22.38
2023-05-22T10:52:37.857Z,22.94
2023-05-22T10:55:09.320Z,23.06
2023-05-22T10:57:39.678Z,22.75
2023-05-22T11:00:09.590Z,22.69
2023-05-22T11:02:42.529Z,22.69
2023-05-22T11:05:21.666Z,22.69
2023-05-22T11:07:48.932Z,22.69
2023-05-22T11:10:26.206Z,22.63
2023-05-22T11:13:12.145Z,22.94
2023-05-22T11:15:45.955Z,23.13
2023-05-22T11:18:14.472Z,23.13
2023-05-22T11:20:41.807Z,22.75
2023-05-22T11:23:10.509Z,22.88
2023-05-22T11:25:41.131Z,23.19
2023-05-22T11:28:08.130Z,23.13
2023-05-22T11:30:35.350Z,23.25
2023-05-22T11:33:02.759Z,23.25
2023-05-22T11:35:29.703Z,23.31
2023-05-22T11:37:57.182Z,23.25
2023-05-22T11:40:25.720Z,23.31
2023-05-22T11:42:53.515Z,23.44
2023-05-22T11:45:20.526Z,23.50
2023-05-22T11:47:48.745Z,23.38
2023-05-22T11:50:22.817Z,23.50
2023-05-22T11:52:56.577Z,23.38
2023-05-22T11:55:23.310Z,23.44
2023-05-22T11:57:49.927Z,23.69
2023-05-22T12:00:17.474Z,23.63
2023-05-22T12:02:47.705Z,23.63
2023-05-22T12:05:15.945Z,23.81
2023-05-22T12:07:43.528Z,23.81
2023-05-22T12:10:11.116Z,23.63
2023-05-22T12:12:38.678Z,23.75
2023-05-22T12:15:07.139Z,23.88
2023-05-22T12:17:36.917Z,23.81
2023-05-22T12:20:05.213Z,24.63
2023-05-22T12:22:31.911Z,24.63
2023-05-22T12:24:58.567Z,24.50
2023-05-22T12:27:33.275Z,24.50
2023-05-22T12:30:10.246Z,24.31
2023-05-22T12:32:37.003Z,24.31
2023-05-22T12:35:03.945Z,24.19
2023-05-22T12:37:31.998Z,24.13
2023-05-22T12:40:00.925Z,23.75
2023-05-22T12:42:28.881Z,23.38
2023-05-22T12:45:00.510Z,23.31
2023-05-22T12:47:27.287Z,23.38
2023-05-22T12:49:54.068Z,23.81
2023-05-22T12:52:20.731Z,24.00
2023-05-22T12:54:47.468Z,23.75
2023-05-22T12:57:14.252Z,23.44
2023-05-22T12:59:40.958Z,23.38
2023-05-22T13:02:08.223Z,23.50
2023-05-22T13:04:34.976Z,23.94
2023-05-22T13:07:01.639Z,23.13
2023-05-22T13:09:28.462Z,22.63
2023-05-22T13:11:55.445Z,22.31
2023-05-22T13:14:22.223Z,22.13
2023-05-22T13:16:48.897Z,22.06
2023-05-22T13:19:15.601Z,22.00
2023-05-22T13:21:42.900Z,22.00
2023-05-22T13:24:09.526Z,22.00
2023-05-22T13:26:36.201Z,22.00
2023-05-22T13:29:02.835Z,21.94
2023-05-22T13:31:29.556Z,21.94
2023-05-22T13:33:56.301Z,21.81
2023-05-22T13:36:23.122Z,21.81
2023-05-22T13:38:49.752Z,22.19
2023-05-22T13:41:17.753Z,22.56
2023-05-22T13:43:44.748Z,22.81
2023-05-22T13:46:11.442Z,22.81
2023-05-22T13:48:38.763Z,22.69
2023-05-22T13:51:05.406Z,22.56
2023-05-22T13:53:32.125Z,22.75
2023-05-22T13:55:58.806Z,22.94
2023-05-22T13:58:25.642Z,22.69
2023-05-22T14:00:52.350Z,22.69
2023-05-22T14:03:19.087Z,22.75
2023-05-22T14:05:46.077Z,22.56
2023-05-22T14:08:13.441Z,22.63
2023-05-22T14:10:40.428Z,22.69
2023-05-22T14:13:08.604Z,22.88
2023-05-22T14:15:35.294Z,23.00
2023-05-22T14:18:02.016Z,22.69
2023-05-22T14:20:28.659Z,22.44
2023-05-22T14:22:58.219Z,22.31
2023-05-22T14:25:27.977Z,22.31
2023-05-22T14:27:54.650Z,22.31
2023-05-22T14:30:21.357Z,22.31
2023-05-22T14:32:48.731Z,22.25
2023-05-22T14:35:16.698Z,22.13
2023-05-22T14:37:44.636Z,21.88
2023-05-22T14:40:11.398Z,21.88
2023-05-22T14:42:38.032Z,21.75
2023-05-22T14:45:05.102Z,21.75
2023-05-22T14:47:31.781Z,21.88
2023-05-22T14:50:06.752Z,21.88
2023-05-22T14:52:45.177Z,21.81
2023-05-22T14:55:11.809Z,21.81
2023-05-22T14:57:38.410Z,21.56
2023-05-22T15:00:12.379Z,21.63
2023-05-22T15:02:42.421Z,21.56
2023-05-22T15:05:09.755Z,21.38
2023-05-22T15:10:08.199Z,21.38
2023-05-22T15:12:34.985Z,21.44
2023-05-22T15:15:01.611Z,21.31
2023-05-22T15:17:28.288Z,21.50
2023-05-22T15:19:55.124Z,21.44
2023-05-22T15:22:21.732Z,21.38
2023-05-22T15:24:48.857Z,21.63
2023-05-22T15:27:17.235Z,21.44
2023-05-22T15:29:43.847Z,21.06
2023-05-22T15:32:10.518Z,20.88
2023-05-22T15:34:37.188Z,20.94
2023-05-22T15:37:03.880Z,20.94
2023-05-22T15:39:31.184Z,20.88
2023-05-22T15:42:05.967Z,20.88
2023-05-22T15:44:33.239Z,21.13
2023-05-22T15:46:59.856Z,21.13
2023-05-22T15:49:28.041Z,21.06
2023-05-22T15:51:58.554Z,20.94
2023-05-22T15:54:25.372Z,20.69
2023-05-22T15:56:52.070Z,20.69
2023-05-22T15:59:18.770Z,20.69
2023-05-22T16:01:45.786Z,20.69
2023-05-22T16:04:12.513Z,20.75
2023-05-22T16:06:39.123Z,20.69
2023-05-22T16:09:06.128Z,20.75
2023-05-22T16:11:33.593Z,20.63
2023-05-22T16:14:00.213Z,20.56
2023-05-22T16:16:26.949Z,20.81
2023-05-22T16:18:53.702Z,20.63
2023-05-22T16:21:20.450Z,20.63
2023-05-22T16:23:47.156Z,20.69
2023-05-22T16:26:13.934Z,20.63
2023-05-22T16:28:40.551Z,20.44
2023-05-22T16:31:07.254Z,20.38
2023-05-22T16:33:36.283Z,20.38
2023-05-22T16:36:03.954Z,20.38
2023-05-22T16:38:30.623Z,20.38
2023-05-22T16:40:58.032Z,20.56
2023-05-22T16:43:24.781Z,20.50
2023-05-22T16:45:51.560Z,20.44
2023-05-22T16:48:18.591Z,20.31
2023-05-22T16:50:46.689Z,20.38
2023-05-22T16:53:16.676Z,20.44
2023-05-22T16:55:43.586Z,20.25
2023-05-22T16:58:11.669Z,20.31
2023-05-22T17:00:40.014Z,20.19
2023-05-22T17:03:08.181Z,20.13
2023-05-22T17:05:35.840Z,20.13
2023-05-22T17:08:03.073Z,20.13
2023-05-22T17:10:29.878Z,20.00
2023-05-22T17:12:56.598Z,19.88
2023-05-22T17:15:23.507Z,19.94
2023-05-22T17:17:50.689Z,19.94
2023-05-22T17:20:17.603Z,19.81
2023-05-22T17:22:44.238Z,19.56
2023-05-22T17:25:11.113Z,19.44
2023-05-22T17:27:37.861Z,19.31
2023-05-22T17:30:06.926Z,19.25
2023-05-22T17:32:34.410Z,19.19
2023-05-22T17:35:02.003Z,19.25
2023-05-22T17:37:28.615Z,19.25
2023-05-22T17:39:55.298Z,19.19
2023-05-22T17:42:22.112Z,19.19
2023-05-22T17:44:49.270Z,19.19
2023-05-22T17:47:16.337Z,19.19
2023-05-22T17:49:42.991Z,19.13
2023-05-22T17:52:10.107Z,19.13
2023-05-22T17:54:36.774Z,19.06
2023-05-22T17:57:04.197Z,19.13
2023-05-22T17:59:32.669Z,19.06
2023-05-22T18:01:59.576Z,18.94
2023-05-22T18:04:26.349Z,19.00
2023-05-22T18:06:52.927Z,18.88
2023-05-22T18:09:19.582Z,18.94
2023-05-22T18:11:46.193Z,18.94
2023-05-22T18:14:13.015Z,18.94
2023-05-22T18:16:39.711Z,18.75
2023-05-22T18:19:06.412Z,18.75
2023-05-22T18:21:33.094Z,18.75
2023-05-22T18:23:59.778Z,18.69
2023-05-22T18:26:26.983Z,18.56
2023-05-22T18:28:53.847Z,18.56
2023-05-22T18:31:20.698Z,18.50
2023-05-22T18:33:47.325Z,18.50
2023-05-22T18:36:13.969Z,18.50
2023-05-22T18:38:41.078Z,18.44
2023-05-22T18:41:07.921Z,18.31
2023-05-22T18:43:34.681Z,18.25
2023-05-22T18:46:01.336Z,18.25
2023-05-22T18:48:28.291Z,18.19
2023-05-22T18:50:57.375Z,18.13
2023-05-22T18:53:27.552Z,18.13
2023-05-22T18:55:54.339Z,18.13
2023-05-22T18:58:21.619Z,18.06
2023-05-22T19:00:48.487Z,18.00
2023-05-22T19:03:15.220Z,17.94
2023-05-22T19:05:42.021Z,17.81
2023-05-22T19:08:08.850Z,17.75
2023-05-22T19:10:35.806Z,17.63
2023-05-22T19:13:02.508Z,17.63
2023-05-22T19:15:29.151Z,17.69
2023-05-22T19:17:55.933Z,17.63
2023-05-22T19:20:23.348Z,17.56
2023-05-22T19:22:51.466Z,17.56
2023-05-22T19:25:18.509Z,17.56
2023-05-22T19:27:45.889Z,17.38
2023-05-22T19:30:15.131Z,17.44
2023-05-22T19:32:43.590Z,17.38
2023-05-22T19:35:11.034Z,17.31
2023-05-22T19:37:38.145Z,17.31
2023-05-22T19:40:05.945Z,17.31
2023-05-22T19:42:32.791Z,17.25
2023-05-22T19:44:59.480Z,17.25
2023-05-22T19:47:26.198Z,17.19
2023-05-22T19:49:52.898Z,17.06
2023-05-22T19:52:22.713Z,17.00
2023-05-22T19:54:49.473Z,17.00
2023-05-22T19:57:16.094Z,16.94
2023-05-22T19:59:43.016Z,16.88
2023-05-22T20:02:09.717Z,16.75
2023-05-22T20:04:38.272Z,16.75
2023-05-22T20:07:05.662Z,16.81
2023-05-22T20:09:32.267Z,16.81
2023-05-22T20:11:58.907Z,16.69
2023-05-22T20:14:25.543Z,16.63
2023-05-22T20:16:52.341Z,16.63
2023-05-22T20:19:19.090Z,16.56
2023-05-22T20:21:48.368Z,16.56
2023-05-22T20:24:20.664Z,16.56
2023-05-22T20:26:47.918Z,16.56
2023-05-22T20:29:14.911Z,16.63
2023-05-22T20:31:41.774Z,16.50
2023-05-22T20:34:09.615Z,16.56
2023-05-22T20:36:36.509Z,16.56
2023-05-22T20:39:03.483Z,16.63
2023-05-22T20:41:30.336Z,16.63
2023-05-22T20:43:58.752Z,16.56
2023-05-22T20:46:26.839Z,16.56
2023-05-22T20:48:54.428Z,16.50
2023-05-22T20:51:21.638Z,16.44
2023-05-22T20:53:49.512Z,16.38
2023-05-22T20:56:16.363Z,16.31
2023-05-22T20:58:43.001Z,16.25
2023-05-22T21:01:09.704Z,16.19
2023-05-22T21:03:36.547Z,16.06
2023-05-22T21:06:03.394Z,15.94
2023-05-22T21:08:30.106Z,15.81
2023-05-22T21:10:56.752Z,15.63
2023-05-22T21:13:23.446Z,15.56
2023-05-22T21:15:50.188Z,15.50
2023-05-22T21:18:17.041Z,15.44
2023-05-22T21:20:43.731Z,15.38
2023-05-22T21:23:10.999Z,15.25
2023-05-22T21:25:37.806Z,15.25
2023-05-22T21:28:04.507Z,15.19
2023-05-22T21:30:31.679Z,15.19
2023-05-22T21:32:58.395Z,15.19
2023-05-22T21:35:25.053Z,15.13
2023-05-22T21:37:52.765Z,15.13
2023-05-22T21:40:19.474Z,15.13
2023-05-22T21:42:47.333Z,15.00
2023-05-22T21:45:14.367Z,15.00
2023-05-22T21:47:41.653Z,15.00
2023-05-22T21:50:08.687Z,14.94
2023-05-22T21:52:35.621Z,14.94
2023-05-22T21:55:02.560Z,14.94
2023-05-22T21:57:29.545Z,14.94
2023-05-22T21:59:56.381Z,14.81
2023-05-22T22:02:23.087Z,14.81
2023-05-22T22:04:49.725Z,14.88
2023-05-22T22:07:16.489Z,14.94
2023-05-22T22:09:43.760Z,15.00
2023-05-22T22:12:10.466Z,15.00
2023-05-22T22:14:37.309Z,15.06
2023-05-22T22:17:05.687Z,15.06
2023-05-22T22:19:34.460Z,15.00
2023-05-22T22:22:02.244Z,14.94
2023-05-22T22:24:29.627Z,14.94
2023-05-22T22:26:56.707Z,14.94
2023-05-22T22:29:23.415Z,14.94
2023-05-22T22:31:50.102Z,14.94
2023-05-22T22:34:16.827Z,15.00
2023-05-22T22:36:43.464Z,14.94
2023-05-22T22:39:10.754Z,14.94
2023-05-22T22:41:37.394Z,14.88
2023-05-22T22:44:04.051Z,14.88
2023-05-22T22:46:30.990Z,14.81
2023-05-22T22:48:59.251Z,14.81
2023-05-22T22:51:25.881Z,14.75
2023-05-22T22:53:53.149Z,14.69
2023-05-22T22:56:19.854Z,14.69
2023-05-22T22:58:46.458Z,14.63
2023-05-22T23:01:13.193Z,14.63
2023-05-22T23:03:39.835Z,14.63
2023-05-22T23:06:06.584Z,14.63
2023-05-22T23:08:33.189Z,14.63
2023-05-22T23:11:00.045Z,14.63
2023-05-22T23:13:26.683Z,14.63
2023-05-22T23:15:53.430Z,14.63
2023-05-22T23:18:20.872Z,14.56
2023-05-22T23:20:47.608Z,14.56
2023-05-22T23:23:14.277Z,14.56
2023-05-22T23:25:41.086Z,14.50
2023-05-22T23:28:07.983Z,14.56
2023-05-22T23:30:34.640Z,14.56
2023-05-22T23:33:02.589Z,14.56
2023-05-22T23:35:29.294Z,14.50
2023-05-22T23:37:55.964Z,14.44
2023-05-22T23:40:22.575Z,14.44
2023-05-22T23:42:49.309Z,14.44
2023-05-22T23:45:16.132Z,14.38
2023-05-22T23:47:42.783Z,14.38
2023-05-22T23:50:09.934Z,14.38
2023-05-22T23:52:36.627Z,14.38
2023-05-22T23:55:03.616Z,14.31
2023-05-22T23:57:30.587Z,14.31
2023-05-22T23:59:57.225Z,14.31
